Time;durP1;ratioP1;P1;durP2;ratioP2;P2;SDS_P1;SDS_P2;PMS_P1;PMS_P2;Temp;Humidity;BMP_temperature;BMP_pressure;BME280_temperature;BME280_humidity;BME280_pressure;Samples;Min_cycle;Max_cycle;Signal;HPM_P1;HPM_P2
2021/11/02 00:01:13;;;;;;;69.15;41.05;;;;;;;6.11;76.64;100106.52;1664903;85;21055;-84
2021/11/02 00:03:40;;;;;;;70.05;41.92;;;;;;;6.05;76.66;100120.70;1685882;84;21575;-84
2021/11/02 00:06:06;;;;;;;61.68;39.40;;;;;;;5.97;76.76;100111.30;1690937;84;21762;-83
2021/11/02 00:08:37;;;;;;;63.80;39.70;;;;;;;5.92;76.80;100100.65;1690557;84;21121;-83
2021/11/02 00:11:05;;;;;;;62.00;40.80;;;;;;;5.85;76.82;100086.48;1690301;84;21034;-83
2021/11/02 00:13:37;;;;;;;64.72;40.10;;;;;;;5.82;76.87;100087.70;1690342;84;21106;-84
2021/11/02 00:16:08;;;;;;;61.88;40.52;;;;;;;5.77;76.94;100091.00;1691262;84;21078;-83
2021/11/02 00:18:36;;;;;;;57.25;39.27;;;;;;;5.72;76.96;100097.36;1691059;84;21787;-84
2021/11/02 00:21:03;;;;;;;63.98;40.75;;;;;;;5.66;76.96;100095.85;1691099;84;21023;-84
2021/11/02 00:23:35;;;;;;;64.60;42.05;;;;;;;5.60;77.04;100091.73;1691103;84;21607;-84
2021/11/02 00:25:59;;;;;;;64.00;39.98;;;;;;;5.56;77.13;100085.95;1690385;84;21094;-84
2021/11/02 00:28:27;;;;;;;66.57;41.42;;;;;;;5.53;77.20;100085.83;1690745;84;21074;-83
2021/11/02 00:30:54;;;;;;;63.08;40.40;;;;;;;5.49;77.35;100084.83;1691267;84;21803;-85
2021/11/02 00:33:24;;;;;;;60.88;39.33;;;;;;;5.47;77.36;100080.41;1691081;84;21557;-84
2021/11/02 00:35:52;;;;;;;58.90;39.90;;;;;;;5.43;77.41;100078.98;1690700;84;21173;-85
2021/11/02 00:38:18;;;;;;;58.85;39.45;;;;;;;5.40;77.38;100073.64;1691051;84;21329;-85
2021/11/02 00:40:48;;;;;;;63.08;39.53;;;;;;;5.35;77.38;100076.92;1691085;84;21329;-85
2021/11/02 00:43:16;;;;;;;62.58;39.55;;;;;;;5.30;77.41;100070.25;1690904;84;21804;-85
2021/11/02 00:45:45;;;;;;;57.60;40.03;;;;;;;5.26;77.46;100067.07;1690993;84;21625;-85
2021/11/02 00:48:23;;;;;;;60.83;40.33;;;;;;;5.22;77.49;100072.59;1691065;84;21071;-85
2021/11/02 00:50:44;;;;;;;65.75;42.55;;;;;;;5.20;77.52;100074.66;1688722;84;21583;-85
2021/11/02 00:53:12;;;;;;;62.70;41.33;;;;;;;5.17;77.64;100065.44;1684759;84;21074;-84
2021/11/02 00:55:41;;;;;;;69.22;42.80;;;;;;;5.14;77.63;100060.09;1690246;84;21632;-84
2021/11/02 00:58:08;;;;;;;63.95;41.90;;;;;;;5.09;77.77;100053.43;1691048;84;21078;-84
2021/11/02 01:00:37;;;;;;;61.68;40.33;;;;;;;5.07;77.83;100051.19;1684385;84;21112;-84
2021/11/02 01:03:05;;;;;;;61.28;40.65;;;;;;;5.04;77.87;100057.59;1691033;84;21077;-84
2021/11/02 01:05:35;;;;;;;66.17;40.98;;;;;;;4.99;77.91;100048.30;1691143;84;22192;-84
2021/11/02 01:08:02;;;;;;;65.12;41.53;;;;;;;4.96;77.95;100049.48;1691356;84;21801;-84
2021/11/02 01:10:30;;;;;;;61.65;40.35;;;;;;;4.94;78.05;100050.28;1690993;84;21073;-83
2021/11/02 01:12:56;;;;;;;60.88;41.85;;;;;;;4.93;78.12;100049.36;1691463;84;21525;-84
2021/11/02 01:15:27;;;;;;;68.05;42.05;;;;;;;4.94;78.20;100056.38;1691360;84;21074;-84
2021/11/02 01:17:55;;;;;;;59.93;41.23;;;;;;;4.95;78.25;100046.81;1691514;84;21142;-84
2021/11/02 01:20:24;;;;;;;56.50;40.43;;;;;;;4.94;78.20;100051.58;1684823;84;21094;-83
2021/11/02 01:22:52;;;;;;;61.88;39.80;;;;;;;4.91;78.12;100046.24;1684809;84;21548;-84
2021/11/02 01:25:21;;;;;;;60.35;40.63;;;;;;;4.88;78.13;100047.03;1691483;84;21058;-84
2021/11/02 01:27:47;;;;;;;60.43;39.42;;;;;;;4.85;78.09;100041.69;1691561;84;21176;-84
2021/11/02 01:30:15;;;;;;;58.55;39.65;;;;;;;4.82;78.11;100041.56;1691385;84;21097;-84
2021/11/02 01:32:44;;;;;;;64.35;42.45;;;;;;;4.77;78.17;100036.20;1691417;84;21827;-84
2021/11/02 01:35:12;;;;;;;59.20;39.50;;;;;;;4.76;78.29;100036.13;1691452;84;21352;-84
2021/11/02 01:37:44;;;;;;;66.95;42.58;;;;;;;4.77;78.39;100037.92;1691133;84;21078;-84
2021/11/02 01:40:11;;;;;;;64.82;42.35;;;;;;;4.76;78.40;100028.31;1691184;84;21126;-84
2021/11/02 01:42:42;;;;;;;63.48;41.08;;;;;;;4.73;78.37;100026.50;1691757;84;21110;-83
2021/11/02 01:45:11;;;;;;;63.95;42.20;;;;;;;4.70;78.48;100030.28;1691795;84;21969;-83
2021/11/02 01:47:42;;;;;;;65.47;41.80;;;;;;;4.70;78.62;100035.49;1691554;84;21501;-84
2021/11/02 01:50:10;;;;;;;59.05;39.30;;;;;;;4.69;78.68;100027.19;1691541;84;21114;-84
2021/11/02 01:52:40;;;;;;;62.60;40.45;;;;;;;4.67;78.61;100024.55;1691514;84;21085;-84
2021/11/02 01:55:12;;;;;;;68.12;41.90;;;;;;;4.64;78.59;100018.33;1684733;84;21094;-84
2021/11/02 01:57:41;;;;;;;60.85;40.83;;;;;;;4.63;78.70;100015.23;1685751;84;21886;-84
2021/11/02 02:00:11;;;;;;;67.03;41.68;;;;;;;4.60;78.70;100019.94;1691287;84;21036;-84
2021/11/02 02:03:08;;;;;;;65.32;40.48;;;;;;;4.58;78.73;100018.08;1691315;84;21058;-84
2021/11/02 02:06:00;;;;;;;62.27;40.55;;;;;;;4.57;78.91;100017.20;1662779;84;21089;-83
2021/11/02 02:08:44;;;;;;;64.10;41.83;;;;;;;4.54;78.80;100011.86;1690667;84;21087;-84
2021/11/02 02:11:20;;;;;;;64.00;41.02;;;;;;;4.54;78.97;100012.29;1690604;84;21822;-84
2021/11/02 02:14:10;;;;;;;60.48;40.92;;;;;;;4.52;78.92;100013.95;1691080;84;21085;-82
2021/11/02 02:16:41;;;;;;;67.08;42.43;;;;;;;4.49;78.94;100021.25;1690399;84;21094;-84
2021/11/02 02:19:39;;;;;;;61.37;40.90;;;;;;;4.45;78.85;100018.06;1691063;84;21066;-84
2021/11/02 02:22:59;;;;;;;63.30;39.73;;;;;;;4.41;78.86;100022.27;1653816;84;21563;-84
2021/11/02 02:25:58;;;;;;;62.17;39.98;;;;;;;4.37;78.86;100019.47;1690114;84;21769;-84
2021/11/02 02:28:34;;;;;;;60.12;40.10;;;;;;;4.32;78.97;100018.01;1690453;84;21067;-83
2021/11/02 02:31:05;;;;;;;62.48;40.40;;;;;;;4.29;79.00;100012.24;1690310;84;21754;-83
2021/11/02 02:33:41;;;;;;;62.33;40.55;;;;;;;4.30;79.08;100007.95;1690683;84;21145;-83
2021/11/02 02:36:12;;;;;;;59.85;39.55;;;;;;;4.28;79.13;100006.58;1691130;84;21078;-83
2021/11/02 02:39:01;;;;;;;62.83;39.20;;;;;;;4.29;79.21;100008.76;1690213;84;21778;-83
2021/11/02 02:41:28;;;;;;;63.30;39.92;;;;;;;4.28;79.24;100005.70;1716353;83;21092;-80
2021/11/02 02:43:55;;;;;;;62.60;39.35;;;;;;;4.28;79.20;99996.16;1716994;82;21048;-80
2021/11/02 02:46:21;;;;;;;67.15;39.35;;;;;;;4.25;79.15;99989.94;1717185;83;21339;-80
2021/11/02 02:48:48;;;;;;;66.95;41.65;;;;;;;4.23;79.17;99992.91;1717358;82;21005;-80
2021/11/02 02:51:15;;;;;;;62.00;39.53;;;;;;;4.23;79.39;99987.70;1717404;83;21899;-80
2021/11/02 02:53:43;;;;;;;60.50;39.33;;;;;;;4.25;79.52;99980.82;1687223;83;21069;-80
2021/11/02 02:56:09;;;;;;;58.92;38.55;;;;;;;4.27;79.63;99982.64;1717437;83;21053;-80
2021/11/02 02:58:42;;;;;;;61.55;40.17;;;;;;;4.28;79.57;99978.34;1717365;83;21064;-80
2021/11/02 03:01:11;;;;;;;67.53;43.25;;;;;;;4.27;79.61;99981.77;1717528;83;21029;-80
2021/11/02 03:03:42;;;;;;;67.27;42.38;;;;;;;4.28;79.80;99981.83;1720151;81;21738;-80
2021/11/02 03:06:15;;;;;;;64.15;40.08;;;;;;;4.28;79.84;99979.65;1748839;82;21059;-80
2021/11/02 03:08:43;;;;;;;60.25;39.23;;;;;;;4.28;79.77;99971.84;1749409;81;21073;-80
2021/11/02 03:11:09;;;;;;;60.23;39.05;;;;;;;4.28;79.83;99972.71;1749300;81;21073;-80
2021/11/02 03:13:37;;;;;;;64.53;40.50;;;;;;;4.27;79.83;99966.13;1749300;80;21018;-80
2021/11/02 03:16:06;;;;;;;59.42;38.23;;;;;;;4.24;79.63;99960.80;1749303;82;21798;-80
2021/11/02 03:44:02;;;;;;;60.03;38.85;;;;;;;3.89;79.52;99974.25;1728779;82;21986;-88
2021/11/02 03:48:52;;;;;;;60.50;38.63;;;;;;;3.79;79.47;99969.91;1665780;82;21118;-81
2021/11/02 03:51:41;;;;;;;55.80;37.53;;;;;;;3.75;79.52;99968.91;1747661;81;21516;-86
2021/11/02 03:56:48;;;;;;;65.57;40.63;;;;;;;3.73;79.76;99969.69;1748941;80;21775;-87
2021/11/02 03:59:35;;;;;;;66.35;39.05;;;;;;;3.64;79.74;99951.97;1745875;82;21038;-87
2021/11/02 04:02:14;;;;;;;54.45;37.40;;;;;;;3.69;79.65;99965.64;1744171;82;21101;-87
2021/11/02 04:26:54;;;;;;;60.67;38.78;;;;;;;3.53;79.88;99953.26;1725814;82;21007;-81
2021/11/02 05:09:55;;;;;;;58.25;36.00;;;;;;;3.34;80.36;99928.22;1749587;82;21059;-87
2021/11/02 05:47:16;;;;;;;62.67;41.65;;;;;;;3.52;80.99;99932.86;1743109;82;21074;-83
2021/11/02 05:58:04;;;;;;;66.87;41.55;;;;;;;3.64;80.67;99935.97;1743202;81;21825;-82
2021/11/02 06:00:13;;;;;;;63.70;41.55;;;;;;;3.65;80.61;99928.62;1743066;81;21079;-83
2021/11/02 06:03:06;;;;;;;69.32;40.88;;;;;;;3.63;80.52;99914.66;1743070;81;21003;-81
2021/11/02 06:05:39;;;;;;;63.17;43.02;;;;;;;3.63;80.53;99908.58;1742629;81;21069;-81
2021/11/02 06:08:27;;;;;;;63.40;40.50;;;;;;;3.64;80.65;99913.84;1742388;81;21038;-81
2021/11/02 06:30:15;;;;;;;63.48;42.85;;;;;;;4.19;81.01;99908.55;1744363;82;21575;-86
2021/11/02 06:32:47;;;;;;;58.20;41.35;;;;;;;4.32;81.18;99912.88;1744190;82;21066;-86
2021/11/02 06:57:14;;;;;;;56.00;37.20;;;;;;;5.39;80.73;99917.03;1748062;82;21042;-80
2021/11/02 07:17:22;;;;;;;54.10;38.17;;;;;;;5.84;80.09;99915.39;1748283;81;21591;-81
2021/11/02 07:20:06;;;;;;;55.95;41.60;;;;;;;5.91;80.04;99921.67;1748392;81;22530;-81
2021/11/02 07:22:53;;;;;;;67.67;44.67;;;;;;;5.97;80.02;99915.38;1748216;82;21058;-81
2021/11/02 07:28:21;;;;;;;67.97;44.63;;;;;;;6.18;79.92;99912.52;1749772;81;21014;-86
2021/11/02 08:46:40;;;;;;;96.57;61.53;;;;;;;6.90;77.66;99871.75;1703582;81;21588;-89
2021/11/02 08:49:04;;;;;;;64.70;45.52;;;;;;;6.89;77.67;99880.03;1752400;81;21093;-86
2021/11/02 08:51:31;;;;;;;70.03;44.45;;;;;;;6.96;77.80;99874.52;1752270;81;21058;-86
2021/11/02 08:53:58;;;;;;;68.87;46.50;;;;;;;7.03;77.88;99867.30;1752382;81;21539;-86
2021/11/02 08:56:24;;;;;;;66.95;43.92;;;;;;;7.11;77.84;99871.41;1752406;81;21721;-90
2021/11/02 08:58:53;;;;;;;68.37;46.50;;;;;;;7.15;77.69;99864.08;1752395;81;21568;-91
2021/11/02 09:01:23;;;;;;;64.70;41.68;;;;;;;7.22;77.71;99867.75;1752628;81;21034;-90
2021/11/02 09:04:01;;;;;;;55.85;37.45;;;;;;;7.28;77.72;99860.95;1752435;81;21039;-91
2021/11/02 09:06:27;;;;;;;52.13;38.00;;;;;;;7.32;77.50;99868.42;1752214;81;21038;-90
2021/11/02 09:08:55;;;;;;;56.30;39.13;;;;;;;7.38;77.50;99867.28;1752326;81;21763;-90
2021/11/02 09:11:27;;;;;;;62.15;41.25;;;;;;;7.39;77.35;99863.80;1752447;81;21087;-91
2021/11/02 09:13:55;;;;;;;71.87;48.25;;;;;;;7.45;77.36;99860.44;1752520;81;21335;-90
2021/11/02 09:16:26;;;;;;;65.50;43.45;;;;;;;7.51;77.28;99860.60;1752511;81;21066;-91
2021/11/02 09:18:55;;;;;;;69.75;45.00;;;;;;;7.56;77.16;99855.92;1752337;81;21061;-90
2021/11/02 09:21:22;;;;;;;80.55;50.88;;;;;;;7.56;77.11;99855.92;1752486;81;21769;-90
2021/11/02 09:23:51;;;;;;;72.80;50.65;;;;;;;7.64;77.13;99849.95;1752260;81;21030;-90
2021/11/02 09:26:20;;;;;;;74.77;47.43;;;;;;;7.68;77.09;99854.44;1752349;81;21027;-91
2021/11/02 09:28:47;;;;;;;68.50;43.83;;;;;;;7.78;77.27;99857.70;1752327;81;21611;-91
2021/11/02 09:31:19;;;;;;;60.67;42.27;;;;;;;7.86;77.20;99853.50;1752441;81;21048;-91
2021/11/02 09:33:45;;;;;;;64.05;43.55;;;;;;;7.91;77.12;99849.69;1727654;81;21854;-91
2021/11/02 09:36:15;;;;;;;62.40;41.50;;;;;;;7.92;76.99;99844.48;1752554;81;21042;-91
2021/11/02 09:38:48;;;;;;;66.80;43.45;;;;;;;7.95;76.98;99841.03;1726639;81;21583;-91
2021/11/02 09:41:43;;;;;;;62.62;41.98;;;;;;;8.00;76.97;99842.02;1749738;81;21051;-90
2021/11/02 09:44:54;;;;;;;56.23;37.67;;;;;;;8.02;76.97;99842.93;1742426;82;21788;-91
2021/11/02 09:47:46;;;;;;;58.15;40.15;;;;;;;8.05;76.87;99839.48;1743750;82;21826;-90
2021/11/02 09:50:52;;;;;;;50.30;35.80;;;;;;;8.03;76.88;99835.50;1742412;82;22146;-91
2021/11/02 09:53:47;;;;;;;49.58;36.58;;;;;;;7.98;76.90;99825.37;1743754;81;21043;-90
2021/11/02 09:56:53;;;;;;;56.10;38.80;;;;;;;8.05;77.11;99835.14;1743757;82;21027;-90
2021/11/02 09:59:40;;;;;;;50.23;37.88;;;;;;;8.06;77.02;99841.26;1738857;81;21059;-90
2021/11/02 10:02:31;;;;;;;59.10;39.53;;;;;;;8.01;76.92;99838.52;1743782;82;22170;-91
2021/11/02 10:05:19;;;;;;;53.50;36.55;;;;;;;8.01;77.13;99838.95;1742826;82;21035;-91
2021/11/02 10:08:14;;;;;;;53.87;38.65;;;;;;;8.02;77.19;99832.45;1708478;82;21071;-90
2021/11/02 10:11:22;;;;;;;56.35;38.48;;;;;;;8.06;77.29;99834.70;1743577;82;21517;-91
2021/11/02 10:14:33;;;;;;;62.15;40.15;;;;;;;8.05;77.24;99830.30;1743664;81;21644;-90
2021/11/02 10:17:16;;;;;;;58.25;41.00;;;;;;;8.02;77.27;99828.95;1742349;82;21836;-90
2021/11/02 10:20:23;;;;;;;60.95;42.15;;;;;;;8.00;77.35;99825.42;1743732;82;21047;-90
2021/11/02 10:23:12;;;;;;;61.77;42.45;;;;;;;8.03;77.52;99831.58;1743501;82;21708;-90
2021/11/02 10:26:19;;;;;;;58.45;40.55;;;;;;;8.07;77.56;99816.39;1742646;82;21039;-90
2021/11/02 10:29:17;;;;;;;61.13;43.78;;;;;;;8.10;77.65;99827.36;1743153;82;21019;-90
2021/11/02 10:32:06;;;;;;;61.92;41.77;;;;;;;8.13;77.66;99819.13;1743512;81;21772;-90
2021/11/02 10:34:47;;;;;;;58.98;40.95;;;;;;;8.14;77.61;99818.69;1743624;82;21098;-90
2021/11/02 10:37:40;;;;;;;60.78;42.55;;;;;;;8.13;77.63;99818.25;1743705;82;21540;-91
2021/11/02 10:40:29;;;;;;;60.95;43.48;;;;;;;8.14;77.71;99813.45;1743626;81;22175;-91
2021/11/02 10:43:27;;;;;;;59.33;41.48;;;;;;;8.13;77.69;99811.27;1681318;85;21100;-90
2021/11/02 10:46:03;;;;;;;66.42;44.20;;;;;;;8.15;77.73;99808.25;1700917;84;21826;-89
2021/11/02 10:48:39;;;;;;;64.60;45.15;;;;;;;8.17;77.75;99805.66;1653204;85;21418;-90
2021/11/02 10:51:09;;;;;;;69.37;45.28;;;;;;;8.15;77.68;99806.94;1712114;83;21029;-91
2021/11/02 10:53:40;;;;;;;67.15;44.30;;;;;;;8.17;77.80;99802.60;1713740;83;21072;-90
2021/11/02 10:56:55;;;;;;;68.52;45.08;;;;;;;8.24;77.94;99801.00;1713279;83;21019;-91
2021/11/02 10:59:23;;;;;;;69.97;45.10;;;;;;;8.28;77.92;99798.02;1699884;84;22718;-91
2021/11/02 11:01:51;;;;;;;68.52;45.25;;;;;;;8.35;77.91;99791.59;1700593;83;21103;-91
2021/11/02 11:04:18;;;;;;;78.80;49.70;;;;;;;8.40;77.88;99792.98;1700654;84;21059;-90
2021/11/02 11:06:45;;;;;;;76.42;48.73;;;;;;;8.42;77.78;99789.98;1700428;83;21608;-90
2021/11/02 11:09:12;;;;;;;80.22;48.87;;;;;;;8.44;77.85;99784.77;1700590;84;21127;-90
2021/11/02 11:11:47;;;;;;;73.55;48.70;;;;;;;8.46;77.80;99781.75;1700384;84;21752;-91
2021/11/02 11:14:15;;;;;;;73.92;48.58;;;;;;;8.51;77.81;99782.72;1672151;84;21557;-90
2021/11/02 11:16:49;;;;;;;71.70;48.42;;;;;;;8.50;77.66;99777.91;1700299;84;21087;-90
2021/11/02 11:19:36;;;;;;;64.77;44.75;;;;;;;8.51;77.72;99770.92;1700524;84;21063;-90
2021/11/02 11:22:03;;;;;;;66.28;44.80;;;;;;;8.52;77.77;99773.58;1699739;84;21307;-91
2021/11/02 11:24:49;;;;;;;66.50;43.15;;;;;;;8.59;77.82;99776.30;1700995;84;21828;-90
2021/11/02 11:27:16;;;;;;;64.10;43.68;;;;;;;8.63;77.90;99776.80;1700216;84;21574;-91
2021/11/02 11:29:49;;;;;;;63.63;45.30;;;;;;;8.63;77.68;99771.11;1700889;84;21035;-90
2021/11/02 11:32:17;;;;;;;66.20;45.50;;;;;;;8.61;77.80;99774.14;1701102;84;21127;-86
2021/11/02 11:34:46;;;;;;;63.98;45.35;;;;;;;8.63;77.77;99775.48;1701022;84;21036;-91
2021/11/02 11:37:14;;;;;;;60.10;44.80;;;;;;;8.65;77.86;99772.05;1701045;84;21769;-91
2021/11/02 11:39:44;;;;;;;64.45;46.90;;;;;;;8.65;77.83;99772.05;1700912;84;21067;-91
2021/11/02 11:42:18;;;;;;;63.68;46.65;;;;;;;8.61;77.65;99771.95;1701279;83;21174;-91
2021/11/02 11:44:46;;;;;;;62.38;44.85;;;;;;;8.57;77.78;99768.39;1703332;84;21052;-91
2021/11/02 11:47:14;;;;;;;71.10;46.48;;;;;;;8.54;77.70;99765.30;1643195;85;21635;-91
2021/11/02 11:49:45;;;;;;;70.75;49.27;;;;;;;8.50;77.70;99759.95;1644326;87;21796;-91
2021/11/02 11:52:11;;;;;;;68.22;48.02;;;;;;;8.46;77.76;99760.33;1671714;85;21095;-91
2021/11/02 11:54:55;;;;;;;70.85;49.03;;;;;;;8.44;77.80;99767.29;1693600;84;21087;-91
2021/11/02 11:57:33;;;;;;;;;;;;;;;8.41;77.86;99768.53;1696054;84;21096;-90
2021/11/02 12:00:08;;;;;;;71.00;50.17;;;;;;;8.40;77.94;99774.62;1693469;84;20227;-90
2021/11/02 12:02:43;;;;;;;72.10;52.08;;;;;;;8.38;78.02;99764.53;1693498;84;21875;-90
2021/11/02 12:05:17;;;;;;;73.78;53.73;;;;;;;8.33;78.00;99774.95;1693122;84;21205;-90
2021/11/02 12:08:12;;;;;;;72.45;51.95;;;;;;;8.30;78.16;99768.33;1693581;84;21083;-90
2021/11/02 12:10:40;;;;;;;72.85;50.67;;;;;;;8.31;78.29;99770.52;1693220;84;21088;-90
2021/11/02 12:13:08;;;;;;;70.55;49.95;;;;;;;8.33;78.37;99769.70;1693480;84;21060;-90
2021/11/02 12:15:58;;;;;;;73.83;53.28;;;;;;;8.34;78.37;99768.83;1693389;84;22495;-91
2021/11/02 12:18:19;;;;;;;72.37;53.52;;;;;;;8.36;78.35;99768.88;1692183;84;21021;-91
2021/11/02 12:20:48;;;;;;;79.47;54.50;;;;;;;8.38;78.36;99768.03;1693474;84;21677;-90
2021/11/02 12:23:36;;;;;;;75.42;52.70;;;;;;;8.39;78.44;99770.25;1644141;85;21647;-90
2021/11/02 12:26:03;;;;;;;83.15;55.88;;;;;;;8.41;78.52;99763.29;1693313;84;21079;-90
2021/11/02 12:28:45;;;;;;;84.15;59.13;;;;;;;8.40;78.37;99769.38;1693553;84;21789;-91
2021/11/02 12:31:19;;;;;;;76.65;57.05;;;;;;;8.38;78.37;99772.40;1693468;84;21068;-90
2021/11/02 12:33:50;;;;;;;93.45;64.15;;;;;;;8.35;78.42;99774.55;1693794;84;21088;-91
2021/11/02 12:36:22;;;;;;;80.10;59.42;;;;;;;8.35;78.48;99771.93;1692822;84;21068;-91
2021/11/02 12:38:49;;;;;;;82.70;60.08;;;;;;;8.34;78.51;99766.22;1693672;84;21112;-90
2021/11/02 12:41:24;;;;;;;79.25;58.55;;;;;;;8.34;78.63;99770.14;1667434;84;21775;-91
2021/11/02 12:44:12;;;;;;;77.80;54.38;;;;;;;8.34;78.56;99767.52;1694715;84;21565;-90
2021/11/02 12:46:44;;;;;;;76.92;52.90;;;;;;;8.31;78.56;99762.65;1678523;84;21642;-90
2021/11/02 12:49:13;;;;;;;70.97;52.08;;;;;;;8.30;78.68;99761.77;1695715;84;21865;-90
2021/11/02 12:51:47;;;;;;;79.75;53.65;;;;;;;8.33;78.68;99760.94;1666847;84;21056;-89
2021/11/02 12:54:17;;;;;;;75.50;53.60;;;;;;;8.31;78.56;99767.45;1665358;84;21993;-90
2021/11/02 12:56:44;;;;;;;84.05;55.98;;;;;;;8.30;78.79;99764.40;1666162;84;21072;-89
2021/11/02 12:59:20;;;;;;;80.80;56.00;;;;;;;8.34;78.82;99771.45;1642454;84;22336;-89
2021/11/02 13:01:47;;;;;;;78.60;56.92;;;;;;;8.31;78.80;99771.39;1696056;83;21574;-89
2021/11/02 13:04:14;;;;;;;79.12;55.83;;;;;;;8.31;78.81;99774.45;1696132;84;21088;-89
2021/11/02 13:06:52;;;;;;;83.27;58.48;;;;;;;8.28;78.84;99775.29;1695977;84;21776;-89
2021/11/02 13:09:21;;;;;;;82.42;56.85;;;;;;;8.28;78.94;99771.35;1695842;84;21604;-90
2021/11/02 13:12:05;;;;;;;79.47;56.25;;;;;;;8.24;78.87;99773.47;1695445;83;21750;-89
2021/11/02 13:14:44;;;;;;;82.10;58.78;;;;;;;8.23;79.04;99778.24;1695740;83;21131;-90
2021/11/02 13:17:14;;;;;;;81.80;55.55;;;;;;;8.23;79.10;99774.74;1695344;84;21604;-90
2021/11/02 13:19:47;;;;;;;82.42;57.80;;;;;;;8.24;79.18;99776.09;1695756;84;21793;-90
2021/11/02 13:22:22;;;;;;;84.07;55.17;;;;;;;8.21;79.16;99775.15;1695623;84;21107;-91
2021/11/02 13:25:10;;;;;;;81.65;54.25;;;;;;;8.22;79.25;99779.11;1696173;84;21071;-90
2021/11/02 13:27:46;;;;;;;78.78;56.23;;;;;;;8.24;79.39;99778.71;1695955;84;21681;-90
2021/11/02 13:30:27;;;;;;;79.17;56.50;;;;;;;8.22;79.31;99768.62;1696258;84;21075;-90
2021/11/02 13:33:12;;;;;;;83.87;56.58;;;;;;;8.23;79.38;99773.44;1695842;83;21929;-91
2021/11/02 13:35:58;;;;;;;85.25;56.50;;;;;;;8.23;79.49;99771.69;1695850;84;21091;-90
2021/11/02 13:38:33;;;;;;;84.62;56.98;;;;;;;8.25;79.58;99775.22;1695765;84;21648;-90
2021/11/02 13:41:23;;;;;;;79.85;55.88;;;;;;;8.27;79.56;99770.88;1695829;84;21111;-90
2021/11/02 13:44:05;;;;;;;87.50;58.52;;;;;;;8.28;79.63;99771.35;1695570;83;21107;-90
2021/11/02 13:46:41;;;;;;;89.85;59.42;;;;;;;8.28;79.65;99773.98;1683374;84;21835;-90
2021/11/02 13:49:09;;;;;;;84.80;57.85;;;;;;;8.31;79.73;99775.77;1695665;84;21053;-90
2021/11/02 13:51:35;;;;;;;82.33;59.27;;;;;;;8.34;79.79;99779.76;1695733;83;21064;-90
2021/11/02 13:54:02;;;;;;;85.50;60.17;;;;;;;8.35;79.80;99773.64;1695878;84;21531;-91
2021/11/02 13:56:32;;;;;;;87.67;60.05;;;;;;;8.35;79.75;99774.95;1695929;84;21044;-90
2021/11/02 13:58:59;;;;;;;88.15;60.67;;;;;;;8.36;79.85;99780.23;1695902;84;21769;-90
2021/11/02 14:01:42;;;;;;;87.10;59.80;;;;;;;8.34;79.73;99774.52;1695985;84;21102;-91
2021/11/02 14:04:40;;;;;;;86.75;60.15;;;;;;;8.32;79.87;99776.23;1696071;84;21069;-90
2021/11/02 14:07:15;;;;;;;91.85;61.10;;;;;;;8.31;79.93;99774.02;1695981;84;21056;-91
2021/11/02 14:09:57;;;;;;;90.75;58.73;;;;;;;8.33;80.00;99776.67;1695936;84;21331;-91
2021/11/02 14:12:35;;;;;;;85.77;58.65;;;;;;;8.33;80.11;99772.33;1695917;84;21760;-90
2021/11/02 14:15:15;;;;;;;85.55;59.48;;;;;;;8.34;80.12;99773.20;1683820;83;21072;-90
2021/11/02 14:17:43;;;;;;;87.20;57.65;;;;;;;8.33;80.14;99767.09;1695855;84;21754;-90
2021/11/02 14:20:35;;;;;;;88.25;58.08;;;;;;;8.28;80.16;99768.73;1695842;84;21633;-90
2021/11/02 14:23:06;;;;;;;90.57;60.08;;;;;;;8.30;80.22;99769.64;1695915;84;21103;-91
2021/11/02 14:25:37;;;;;;;84.95;57.23;;;;;;;8.28;80.29;99770.05;1695984;84;21684;-90
2021/11/02 14:28:05;;;;;;;84.42;57.83;;;;;;;8.29;80.36;99764.36;1695717;84;21629;-90
2021/11/02 14:30:37;;;;;;;86.30;57.90;;;;;;;8.28;80.43;99770.05;1695872;83;21180;-90
2021/11/02 14:33:11;;;;;;;85.97;57.35;;;;;;;8.29;80.47;99766.55;1696043;84;21557;-90
2021/11/02 14:35:55;;;;;;;87.27;58.28;;;;;;;8.26;80.45;99769.14;1695583;84;21091;-90
2021/11/02 14:38:31;;;;;;;92.57;58.50;;;;;;;8.25;80.50;99767.79;1665836;84;21771;-90
2021/11/02 14:40:59;;;;;;;84.62;59.30;;;;;;;8.23;80.58;99768.19;1692959;84;21112;-89
2021/11/02 14:43:32;;;;;;;80.97;58.35;;;;;;;8.24;80.74;99768.23;1695019;83;21626;-89
2021/11/02 14:46:05;;;;;;;82.15;57.98;;;;;;;8.25;80.82;99773.91;1692468;84;21028;-90
2021/11/02 14:48:50;;;;;;;81.12;58.20;;;;;;;8.24;80.80;99765.61;1693352;84;21140;-91
2021/11/02 14:51:25;;;;;;;81.30;56.10;;;;;;;8.24;80.91;99768.23;1693213;84;21814;-90
2021/11/02 14:53:56;;;;;;;80.50;56.48;;;;;;;8.26;80.94;99767.83;1693153;84;21055;-90
2021/11/02 14:56:31;;;;;;;74.00;54.65;;;;;;;8.25;80.99;99764.73;1667611;84;21127;-87
2021/11/02 14:59:06;;;;;;;81.50;55.55;;;;;;;8.27;81.01;99771.32;1693126;84;21306;-90
2021/11/02 15:01:41;;;;;;;78.17;54.95;;;;;;;8.27;81.11;99766.95;1692764;84;21041;-90
2021/11/02 15:04:19;;;;;;;71.12;52.08;;;;;;;8.28;81.15;99765.23;1693049;84;21980;-89
2021/11/02 15:06:58;;;;;;;76.07;53.40;;;;;;;8.28;81.14;99761.30;1692555;84;21065;-88
2021/11/02 15:09:30;;;;;;;74.60;52.88;;;;;;;8.29;81.18;99760.43;1691432;84;21056;-88
2021/11/02 15:11:57;;;;;;;77.22;53.87;;;;;;;8.32;81.27;99769.67;1692906;84;21171;-87
2021/11/02 15:14:27;;;;;;;80.25;58.33;;;;;;;8.31;81.24;99776.63;1693333;84;21115;-89
2021/11/02 15:17:06;;;;;;;73.12;54.38;;;;;;;8.33;81.38;99774.95;1693279;84;21752;-89
2021/11/02 15:19:36;;;;;;;76.30;54.77;;;;;;;8.38;81.42;99774.58;1693287;84;21075;-87
2021/11/02 15:22:07;;;;;;;74.00;53.42;;;;;;;8.41;81.33;99778.11;1692632;84;21095;-87
2021/11/02 15:24:36;;;;;;;74.32;55.03;;;;;;;8.36;81.21;99770.18;1693453;84;21132;-88
2021/11/02 15:27:15;;;;;;;68.97;50.88;;;;;;;8.34;81.28;99775.39;1693403;84;21155;-86
2021/11/02 15:29:49;;;;;;;71.33;52.78;;;;;;;8.29;81.22;99774.41;1693470;84;21764;-87
2021/11/02 15:32:22;;;;;;;71.30;52.85;;;;;;;8.27;81.39;99773.94;1693376;84;21100;-87
2021/11/02 15:34:59;;;;;;;74.00;52.85;;;;;;;8.28;81.47;99775.72;1692703;84;21095;-88
2021/11/02 15:37:35;;;;;;;74.03;52.98;;;;;;;8.28;81.54;99777.91;1692589;84;21139;-85
2021/11/02 15:40:07;;;;;;;76.02;52.48;;;;;;;8.30;81.55;99779.25;1691600;84;21598;-86
2021/11/02 15:42:37;;;;;;;73.07;51.35;;;;;;;8.28;81.51;99773.98;1667387;84;21752;-88
2021/11/02 15:45:25;;;;;;;70.97;50.43;;;;;;;8.28;81.52;99776.59;1695023;84;21040;-88
2021/11/02 15:47:53;;;;;;;75.08;53.20;;;;;;;8.28;81.60;99779.66;1695608;84;21056;-87
2021/11/02 15:50:24;;;;;;;72.22;53.58;;;;;;;8.28;81.60;99779.66;1695600;84;21112;-89
2021/11/02 15:52:57;;;;;;;71.97;52.00;;;;;;;8.28;81.62;99778.34;1695157;84;21079;-90
2021/11/02 15:55:25;;;;;;;74.50;49.73;;;;;;;8.29;81.71;99783.59;1696149;84;21762;-91
2021/11/02 15:57:55;;;;;;;77.87;54.23;;;;;;;8.29;81.59;99786.21;1695823;84;21036;-89
2021/11/02 16:00:29;;;;;;;76.97;52.33;;;;;;;8.25;81.63;99784.39;1695167;84;21108;-91
2021/11/02 16:02:56;;;;;;;73.92;54.50;;;;;;;8.25;81.68;99784.39;1695873;83;21116;-89
2021/11/02 16:05:29;;;;;;;75.60;53.58;;;;;;;8.25;81.76;99790.07;1695957;84;21036;-89
2021/11/02 16:07:57;;;;;;;81.17;55.45;;;;;;;8.25;81.71;99791.39;1695900;84;21621;-88
2021/11/02 16:10:29;;;;;;;78.28;55.78;;;;;;;8.23;81.72;99790.04;1695717;84;21025;-87
2021/11/02 16:12:56;;;;;;;75.30;54.18;;;;;;;8.21;81.79;99790.88;1695791;84;21091;-88
2021/11/02 16:15:29;;;;;;;78.07;54.35;;;;;;;8.22;81.83;99797.87;1695957;84;21161;-89
2021/11/02 16:17:58;;;;;;;76.40;54.90;;;;;;;8.21;81.89;99799.61;1696171;84;21041;-90
2021/11/02 16:20:35;;;;;;;73.20;54.25;;;;;;;8.22;81.93;99797.87;1696699;82;21801;-90
2021/11/02 16:23:08;;;;;;;75.47;53.17;;;;;;;8.24;81.95;99789.20;1728772;82;21081;-90
2021/11/02 16:25:44;;;;;;;77.45;55.58;;;;;;;8.25;81.97;99794.01;1728815;83;21570;-86
2021/11/02 16:28:20;;;;;;;75.17;53.13;;;;;;;8.28;82.03;99794.95;1727536;82;21076;-88
2021/11/02 16:30:56;;;;;;;72.05;51.48;;;;;;;8.30;81.97;99795.86;1781372;80;21000;-86
2021/11/02 16:33:43;;;;;;;78.57;54.63;;;;;;;8.30;81.94;99788.00;1754816;80;21770;-88